createdAt,value
2023-05-10T00:00:41.172Z,14.95
2023-05-10T00:03:26.970Z,14.35
2023-05-10T00:06:13.096Z,14.32
2023-05-10T00:08:58.923Z,13.68
2023-05-10T00:11:44.400Z,13.48
2023-05-10T00:14:29.976Z,13.60
2023-05-10T00:17:15.739Z,13.77
2023-05-10T00:20:01.468Z,14.15
2023-05-10T00:22:46.503Z,13.60
2023-05-10T00:25:31.938Z,13.30
2023-05-10T00:28:17.605Z,13.57
2023-05-10T00:31:03.217Z,15.15
2023-05-10T00:33:48.996Z,13.60
2023-05-10T00:36:34.346Z,14.45
2023-05-10T00:39:19.731Z,15.60
2023-05-10T00:42:05.443Z,15.32
2023-05-10T00:44:51.750Z,15.88
2023-05-10T00:47:37.450Z,15.05
2023-05-10T00:50:24.115Z,15.38
2023-05-10T00:53:10.034Z,14.85
2023-05-10T00:55:55.496Z,15.93
2023-05-10T00:58:41.941Z,15.32
2023-05-10T01:01:28.772Z,14.52
2023-05-10T01:04:15.379Z,14.93
2023-05-10T01:07:00.992Z,14.30
2023-05-10T01:09:46.678Z,14.52
2023-05-10T01:12:32.052Z,15.70
2023-05-10T01:15:18.406Z,15.80
2023-05-10T01:18:04.467Z,16.10
2023-05-10T01:21:05.346Z,15.15
2023-05-10T01:23:50.504Z,16.50
2023-05-10T01:26:53.977Z,16.63
2023-05-10T01:30:24.300Z,17.10
2023-05-10T01:33:36.290Z,16.23
2023-05-10T01:36:29.980Z,16.23
2023-05-10T01:39:33.313Z,16.75
2023-05-10T01:42:25.903Z,15.07
2023-05-10T01:45:32.039Z,14.55
2023-05-10T01:48:19.469Z,15.68
2023-05-10T01:51:07.138Z,14.38
2023-05-10T01:53:59.235Z,14.90
2023-05-10T01:56:46.675Z,15.52
2023-05-10T01:59:37.298Z,16.92
2023-05-10T02:02:25.390Z,15.50
2023-05-10T02:05:13.629Z,16.10
2023-05-10T02:07:59.737Z,18.35
2023-05-10T02:10:47.890Z,17.35
2023-05-10T02:13:35.252Z,16.60
2023-05-10T02:16:24.690Z,16.15
2023-05-10T02:19:11.422Z,15.57
2023-05-10T02:21:58.119Z,16.08
2023-05-10T02:24:44.576Z,17.20
2023-05-10T02:27:31.094Z,16.00
2023-05-10T02:30:17.916Z,15.95
2023-05-10T02:33:06.154Z,17.63
2023-05-10T02:35:52.019Z,17.17
2023-05-10T02:38:37.819Z,17.15
2023-05-10T02:41:25.030Z,17.67
2023-05-10T02:44:11.405Z,18.30
2023-05-10T02:46:57.114Z,19.05
2023-05-10T02:49:43.810Z,19.85
2023-05-10T02:52:35.399Z,22.02
2023-05-10T02:55:26.380Z,23.60
2023-05-10T02:58:12.075Z,25.95
2023-05-10T03:00:57.160Z,26.63
2023-05-10T03:03:42.719Z,24.15
2023-05-10T03:06:29.570Z,21.38
2023-05-10T03:09:16.673Z,20.52
2023-05-10T03:12:27.957Z,19.50
2023-05-10T03:15:21.278Z,21.20
2023-05-10T03:18:11.686Z,18.83
2023-05-10T03:21:02.715Z,19.27
2023-05-10T03:23:52.197Z,19.40
2023-05-10T03:26:38.614Z,19.52
2023-05-10T03:29:32.238Z,19.38
2023-05-10T03:32:17.570Z,19.60
2023-05-10T03:35:11.321Z,21.48
2023-05-10T03:37:57.022Z,18.73
2023-05-10T03:40:42.530Z,20.13
2023-05-10T03:43:27.943Z,19.20
2023-05-10T03:46:13.358Z,18.33
2023-05-10T03:48:58.780Z,16.95
2023-05-10T03:51:44.216Z,18.60
2023-05-10T03:54:29.559Z,19.13
2023-05-10T03:57:15.117Z,17.27
2023-05-10T04:00:00.782Z,19.55
2023-05-10T04:02:46.485Z,16.83
2023-05-10T04:05:37.478Z,18.92
2023-05-10T04:08:23.044Z,18.58
2023-05-10T04:11:10.136Z,17.13
2023-05-10T04:13:55.686Z,17.13
2023-05-10T04:16:41.268Z,17.70
2023-05-10T04:19:33.090Z,18.15
2023-05-10T04:22:18.640Z,18.77
2023-05-10T04:25:04.330Z,16.95
2023-05-10T04:27:49.372Z,20.02
2023-05-10T04:30:34.879Z,17.50
2023-05-10T04:33:20.397Z,17.52
2023-05-10T04:36:06.175Z,19.90
2023-05-10T04:38:51.652Z,18.23
2023-05-10T04:41:39.067Z,17.45
2023-05-10T04:44:24.455Z,18.15
2023-05-10T04:47:12.013Z,16.52
2023-05-10T04:49:58.017Z,16.88
2023-05-10T04:52:43.324Z,15.80
2023-05-10T04:55:29.001Z,16.35
2023-05-10T04:58:14.059Z,16.30
2023-05-10T05:01:07.002Z,16.80
2023-05-10T05:03:53.864Z,15.70
2023-05-10T05:06:39.505Z,16.75
2023-05-10T05:09:24.786Z,17.17
2023-05-10T05:12:14.768Z,16.95
2023-05-10T05:15:00.167Z,18.45
2023-05-10T05:17:45.647Z,17.27
2023-05-10T05:20:34.086Z,17.23
2023-05-10T05:23:21.556Z,17.45
2023-05-10T05:26:06.981Z,16.17
2023-05-10T05:28:55.341Z,17.45
2023-05-10T05:31:40.477Z,14.85
2023-05-10T05:34:26.118Z,17.17
2023-05-10T05:37:18.327Z,14.60
2023-05-10T05:42:50.091Z,15.77
2023-05-10T05:45:35.776Z,14.00
2023-05-10T05:48:21.552Z,12.48
2023-05-10T05:51:07.435Z,13.38
2023-05-10T05:53:52.958Z,13.00
2023-05-10T05:56:38.936Z,11.90
2023-05-10T05:59:24.957Z,11.13
2023-05-10T06:02:11.150Z,11.40
2023-05-10T06:04:56.169Z,10.73
2023-05-10T06:07:44.582Z,10.88
2023-05-10T06:10:29.611Z,10.60
2023-05-10T06:13:14.969Z,10.10
2023-05-10T06:16:00.631Z,14.02
2023-05-10T06:18:46.106Z,10.80
2023-05-10T06:21:31.650Z,10.88
2023-05-10T06:24:17.178Z,10.90
2023-05-10T06:27:02.998Z,10.80
2023-05-10T06:29:49.221Z,11.05
2023-05-10T06:32:36.148Z,10.40
2023-05-10T06:35:22.001Z,10.55
2023-05-10T06:38:07.537Z,11.38
2023-05-10T06:40:53.053Z,14.48
2023-05-10T06:43:40.893Z,12.48
2023-05-10T06:46:25.991Z,13.48
2023-05-10T06:49:11.457Z,11.98
2023-05-10T06:51:57.275Z,11.95
2023-05-10T06:54:42.736Z,10.38
2023-05-10T06:57:31.672Z,9.57
2023-05-10T07:00:18.844Z,9.52
2023-05-10T07:03:04.544Z,9.23
2023-05-10T07:05:49.887Z,8.75
2023-05-10T07:08:35.492Z,8.30
2023-05-10T07:11:20.744Z,8.20
2023-05-10T07:14:06.127Z,8.02
2023-05-10T07:16:51.471Z,8.20
2023-05-10T07:19:37.257Z,8.68
2023-05-10T07:22:22.568Z,7.78
2023-05-10T07:25:08.351Z,8.75
2023-05-10T07:27:53.844Z,8.60
2023-05-10T07:30:39.403Z,8.07
2023-05-10T07:33:24.761Z,8.88
2023-05-10T07:36:10.369Z,8.27
2023-05-10T07:38:57.444Z,8.45
2023-05-10T07:41:43.105Z,8.88
2023-05-10T07:44:28.882Z,8.15
2023-05-10T07:47:14.202Z,11.32
2023-05-10T07:49:59.692Z,9.77
2023-05-10T07:52:45.351Z,9.90
2023-05-10T07:55:30.588Z,10.38
2023-05-10T07:58:16.142Z,10.43
2023-05-10T08:01:01.606Z,11.10
2023-05-10T08:03:47.546Z,10.43
2023-05-10T08:06:32.909Z,10.68
2023-05-10T08:09:18.703Z,9.45
2023-05-10T08:12:04.484Z,10.00
2023-05-10T08:14:49.453Z,9.65
2023-05-10T08:17:35.134Z,9.20
2023-05-10T08:20:20.525Z,8.18
2023-05-10T08:23:05.954Z,8.32
2023-05-10T08:25:51.550Z,7.32
2023-05-10T08:28:37.317Z,7.25
2023-05-10T08:31:22.889Z,9.20
2023-05-10T08:34:08.324Z,7.55
2023-05-10T08:36:53.968Z,7.20
2023-05-10T08:39:39.548Z,6.97
2023-05-10T08:42:28.465Z,6.00
2023-05-10T08:45:14.517Z,6.03
2023-05-10T08:48:03.478Z,5.72
2023-05-10T08:50:53.253Z,5.13
2023-05-10T08:53:38.824Z,5.30
2023-05-10T08:56:24.999Z,5.25
2023-05-10T08:59:10.513Z,4.72
2023-05-10T09:01:58.534Z,5.00
2023-05-10T09:04:43.927Z,4.20
2023-05-10T09:07:29.386Z,4.00
2023-05-10T09:10:16.747Z,3.97
2023-05-10T09:13:03.089Z,3.72
2023-05-10T09:15:49.032Z,3.65
2023-05-10T09:18:34.403Z,3.15
2023-05-10T09:21:21.368Z,3.92
2023-05-10T09:24:08.381Z,3.60
2023-05-10T09:26:53.586Z,4.15
2023-05-10T09:29:43.711Z,4.00
2023-05-10T09:32:43.143Z,4.10
2023-05-10T09:35:33.635Z,3.90
2023-05-10T09:38:18.868Z,3.83
2023-05-10T09:41:05.036Z,3.40
2023-05-10T09:43:51.094Z,3.10
2023-05-10T09:46:37.207Z,3.42
2023-05-10T09:49:23.738Z,2.60
2023-05-10T09:52:09.178Z,2.85
2023-05-10T09:54:55.383Z,2.75
2023-05-10T09:57:41.680Z,2.38
2023-05-10T10:00:28.244Z,2.30
2023-05-10T10:03:20.264Z,2.70
2023-05-10T10:06:18.827Z,2.35
2023-05-10T10:09:12.375Z,2.25
2023-05-10T10:11:57.930Z,2.30
2023-05-10T10:14:43.324Z,2.65
2023-05-10T10:17:29.096Z,2.30
2023-05-10T10:20:15.993Z,1.92
2023-05-10T10:23:01.591Z,2.10
2023-05-10T10:25:49.754Z,2.78
2023-05-10T10:29:08.710Z,2.40
2023-05-10T10:32:01.429Z,2.35
2023-05-10T10:34:47.124Z,2.67
2023-05-10T10:37:46.346Z,2.22
2023-05-10T10:40:35.070Z,2.80
2023-05-10T10:43:26.272Z,2.40
2023-05-10T10:46:16.843Z,2.20
2023-05-10T10:49:21.063Z,2.17
2023-05-10T10:52:37.158Z,2.30
2023-05-10T10:55:23.395Z,2.10
2023-05-10T10:58:09.024Z,1.80
2023-05-10T11:01:13.989Z,1.90
2023-05-10T11:04:18.178Z,2.17
2023-05-10T11:07:22.327Z,2.30
2023-05-10T11:10:07.982Z,1.80
2023-05-10T11:13:10.888Z,1.88
2023-05-10T11:15:58.158Z,1.92
2023-05-10T11:19:04.310Z,2.00
2023-05-10T11:21:51.924Z,2.13
2023-05-10T11:24:37.191Z,2.25
2023-05-10T11:27:22.498Z,2.08
2023-05-10T11:30:09.995Z,2.40
2023-05-10T11:32:55.673Z,2.30
2023-05-10T11:35:43.299Z,2.30
2023-05-10T11:38:28.818Z,2.70
2023-05-10T11:41:14.813Z,2.42
2023-05-10T11:44:00.499Z,2.50
2023-05-10T11:46:45.936Z,2.72
2023-05-10T11:49:31.616Z,3.00
2023-05-10T11:52:19.290Z,2.60
2023-05-10T11:55:05.026Z,2.67
2023-05-10T11:57:53.777Z,2.65
2023-05-10T12:00:39.315Z,2.80
2023-05-10T12:03:25.029Z,2.88
2023-05-10T12:06:10.552Z,3.20
2023-05-10T12:08:56.054Z,4.13
2023-05-10T12:11:44.315Z,5.15
2023-05-10T12:14:34.777Z,4.43
2023-05-10T12:17:19.939Z,4.80
2023-05-10T12:20:18.803Z,6.53
2023-05-10T12:23:04.915Z,5.38
2023-05-10T12:25:50.554Z,5.25
2023-05-10T12:28:36.500Z,6.55
2023-05-10T12:31:22.225Z,5.03
2023-05-10T12:34:09.112Z,5.53
2023-05-10T12:36:54.903Z,4.95
2023-05-10T12:39:45.774Z,4.43
2023-05-10T12:42:32.477Z,4.28
2023-05-10T12:45:19.279Z,4.03
2023-05-10T12:48:04.711Z,3.50
2023-05-10T12:50:50.122Z,2.95
2023-05-10T12:53:35.898Z,2.60
2023-05-10T12:56:21.363Z,2.97
2023-05-10T12:59:06.462Z,3.13
2023-05-10T13:01:52.017Z,2.70
2023-05-10T13:04:40.401Z,2.58
2023-05-10T13:07:25.954Z,2.88
2023-05-10T13:10:12.272Z,2.40
2023-05-10T13:12:58.448Z,2.28
2023-05-10T13:15:43.914Z,2.40
2023-05-10T13:18:29.233Z,2.33
2023-05-10T13:21:14.708Z,2.40
2023-05-10T13:24:01.420Z,2.05
2023-05-10T13:26:46.797Z,1.70
2023-05-10T13:29:32.909Z,1.90
2023-05-10T13:32:18.235Z,1.80
2023-05-10T13:35:04.405Z,2.42
2023-05-10T13:37:49.583Z,1.92
2023-05-10T13:40:37.016Z,2.10
2023-05-10T13:43:22.477Z,2.20
2023-05-10T13:46:07.953Z,2.00
2023-05-10T13:48:53.243Z,2.35
2023-05-10T13:51:38.811Z,2.42
2023-05-10T13:54:24.823Z,2.25
2023-05-10T13:57:12.660Z,2.20
2023-05-10T13:59:58.260Z,2.10
2023-05-10T14:02:43.823Z,2.03
2023-05-10T14:05:29.321Z,2.70
2023-05-10T14:08:15.677Z,3.15
2023-05-10T14:11:01.314Z,2.92
2023-05-10T14:13:46.959Z,2.78
2023-05-10T14:16:32.679Z,3.05
2023-05-10T14:19:18.373Z,2.95
2023-05-10T14:22:03.857Z,3.28
2023-05-10T14:24:49.732Z,3.30
2023-05-10T14:27:35.230Z,3.22
2023-05-10T14:30:20.563Z,2.58
2023-05-10T14:33:05.988Z,2.30
2023-05-10T14:35:51.638Z,2.17
2023-05-10T14:38:37.145Z,1.92
2023-05-10T14:41:22.809Z,2.55
2023-05-10T14:44:07.821Z,2.60
2023-05-10T14:46:53.254Z,2.30
2023-05-10T14:49:38.534Z,1.98
2023-05-10T14:52:23.975Z,2.13
2023-05-10T14:55:09.809Z,1.83
2023-05-10T14:57:55.297Z,1.70
2023-05-10T15:00:41.959Z,2.15
2023-05-10T15:03:28.146Z,2.17
2023-05-10T15:06:15.730Z,2.13
2023-05-10T15:09:01.777Z,2.05
2023-05-10T15:11:47.115Z,2.20
2023-05-10T15:14:33.802Z,1.70
2023-05-10T15:17:19.101Z,1.73
2023-05-10T15:20:05.275Z,1.52
2023-05-10T15:22:50.396Z,1.80
2023-05-10T15:25:38.045Z,2.10
2023-05-10T15:28:23.427Z,2.45
2023-05-10T15:31:09.188Z,2.42
2023-05-10T15:33:59.948Z,3.30
2023-05-10T15:36:46.330Z,3.50
2023-05-10T15:39:31.386Z,3.53
2023-05-10T15:42:17.164Z,3.78
2023-05-10T15:45:02.250Z,3.30
2023-05-10T15:47:47.748Z,3.60
2023-05-10T15:50:33.069Z,3.17
2023-05-10T15:53:18.474Z,3.90
2023-05-10T15:56:04.027Z,3.03
2023-05-10T15:58:49.253Z,3.30
2023-05-10T16:01:34.880Z,2.95
2023-05-10T16:04:20.035Z,2.60
2023-05-10T16:07:05.653Z,2.40
2023-05-10T16:09:51.080Z,2.20
2023-05-10T16:12:36.729Z,2.10
2023-05-10T16:15:22.530Z,1.90
2023-05-10T16:18:07.715Z,1.95
2023-05-10T16:20:53.959Z,2.00
2023-05-10T16:23:39.606Z,1.50
2023-05-10T16:26:24.981Z,1.77
2023-05-10T16:29:10.567Z,1.80
2023-05-10T16:31:55.772Z,1.60
2023-05-10T16:34:41.263Z,1.80
2023-05-10T16:37:26.628Z,1.70
2023-05-10T16:40:12.359Z,1.65
2023-05-10T16:42:58.135Z,1.80
2023-05-10T16:45:43.771Z,2.10
2023-05-10T16:48:29.069Z,2.10
2023-05-10T16:51:14.291Z,2.50
2023-05-10T16:53:59.926Z,2.10
2023-05-10T16:56:45.170Z,2.50
2023-05-10T16:59:30.507Z,2.50
2023-05-10T17:02:16.779Z,2.80
2023-05-10T17:05:02.060Z,2.92
2023-05-10T17:07:47.497Z,3.38
2023-05-10T17:10:33.089Z,2.67
2023-05-10T17:13:18.742Z,3.38
2023-05-10T17:16:04.520Z,2.80
2023-05-10T17:18:49.833Z,3.15
2023-05-10T17:21:35.656Z,2.95
2023-05-10T17:24:20.970Z,5.30
2023-05-10T17:27:06.023Z,5.65
2023-05-10T17:29:57.052Z,6.95
2023-05-10T17:32:42.745Z,8.25
2023-05-10T17:35:28.167Z,7.03
2023-05-10T17:38:13.984Z,7.00
2023-05-10T17:40:59.098Z,6.68
2023-05-10T17:43:44.692Z,6.80
2023-05-10T17:46:29.907Z,6.20
2023-05-10T17:49:15.548Z,5.57
2023-05-10T17:52:00.626Z,5.53
2023-05-10T17:54:45.955Z,5.28
2023-05-10T17:57:31.346Z,6.30
2023-05-10T18:00:17.003Z,5.82
2023-05-10T18:03:03.516Z,6.43
2023-05-10T18:05:49.591Z,6.40
2023-05-10T18:08:34.791Z,6.85
2023-05-10T18:11:20.445Z,6.10
2023-05-10T18:14:05.951Z,6.18
2023-05-10T18:16:51.860Z,6.30
2023-05-10T18:19:37.533Z,6.03
2023-05-10T18:22:22.933Z,6.00
2023-05-10T18:25:08.919Z,7.00
2023-05-10T18:27:54.677Z,6.38
2023-05-10T18:30:40.470Z,6.20
2023-05-10T18:33:25.794Z,8.50
2023-05-10T18:36:11.127Z,7.38
2023-05-10T18:38:56.658Z,6.93
2023-05-10T18:41:42.592Z,6.97
2023-05-10T18:44:28.911Z,6.28
2023-05-10T18:47:14.789Z,7.40
2023-05-10T18:49:59.956Z,6.68
2023-05-10T18:52:46.495Z,7.30
2023-05-10T18:55:32.210Z,9.38
2023-05-10T18:58:17.840Z,8.68
2023-05-10T19:01:03.210Z,9.18
2023-05-10T19:03:48.477Z,9.95
2023-05-10T19:06:33.923Z,9.27
2023-05-10T19:09:21.002Z,9.85
2023-05-10T19:12:06.405Z,10.02
2023-05-10T19:14:51.823Z,10.00
2023-05-10T19:17:39.128Z,8.77
2023-05-10T19:20:24.547Z,8.95
2023-05-10T19:23:10.463Z,8.60
2023-05-10T19:25:55.765Z,7.75
2023-05-10T19:28:41.454Z,8.35
2023-05-10T19:31:26.728Z,7.60
2023-05-10T19:34:12.133Z,7.10
2023-05-10T19:36:58.042Z,8.45
2023-05-10T19:39:43.381Z,8.75
2023-05-10T19:42:28.779Z,7.72
2023-05-10T19:45:15.803Z,8.18
2023-05-10T19:48:01.523Z,8.48
2023-05-10T19:50:47.186Z,10.07
2023-05-10T19:53:32.444Z,9.95
2023-05-10T19:56:18.498Z,9.85
2023-05-10T19:59:03.953Z,8.77
2023-05-10T20:01:49.046Z,9.40
2023-05-10T20:04:34.429Z,10.68
2023-05-10T20:07:19.886Z,10.15
2023-05-10T20:10:05.583Z,11.82
2023-05-10T20:12:52.237Z,11.70
2023-05-10T20:15:37.528Z,11.35
2023-05-10T20:18:23.559Z,12.82
2023-05-10T20:21:09.006Z,10.57
2023-05-10T20:23:54.551Z,10.18
2023-05-10T20:26:40.846Z,10.25
2023-05-10T20:29:26.629Z,9.65
2023-05-10T20:32:12.272Z,9.82
2023-05-10T20:34:57.642Z,9.65
2023-05-10T20:37:42.997Z,9.57
2023-05-10T20:40:28.521Z,9.48
2023-05-10T20:43:14.046Z,9.15
2023-05-10T20:46:05.150Z,10.68
2023-05-10T20:48:50.930Z,9.73
2023-05-10T20:51:36.238Z,11.20
2023-05-10T20:54:22.104Z,10.57
2023-05-10T20:57:07.533Z,10.85
2023-05-10T20:59:53.069Z,10.55
2023-05-10T21:02:38.257Z,10.95
2023-05-10T21:05:23.946Z,10.15
2023-05-10T21:08:09.226Z,12.40
2023-05-10T21:10:54.838Z,14.13
2023-05-10T21:13:40.257Z,13.80
2023-05-10T21:16:25.621Z,12.73
2023-05-10T21:19:11.545Z,13.02
2023-05-10T21:21:58.929Z,12.73
2023-05-10T21:24:44.206Z,13.07
2023-05-10T21:27:29.676Z,10.88
2023-05-10T21:30:15.363Z,11.05
2023-05-10T21:33:02.430Z,12.52
2023-05-10T21:35:48.010Z,10.40
2023-05-10T21:38:33.793Z,11.32
2023-05-10T21:41:19.239Z,10.02
2023-05-10T21:44:05.033Z,12.77
2023-05-10T21:46:50.575Z,14.30
2023-05-10T21:49:36.132Z,12.98
2023-05-10T21:52:21.325Z,12.35
2023-05-10T21:55:08.476Z,11.73
2023-05-10T21:57:53.876Z,11.05
2023-05-10T22:00:39.366Z,9.40
2023-05-10T22:03:24.828Z,9.18
2023-05-10T22:06:10.268Z,9.45
2023-05-10T22:08:55.473Z,9.30
2023-05-10T22:11:41.136Z,8.02
2023-05-10T22:14:26.339Z,8.32
2023-05-10T22:17:11.898Z,7.80
2023-05-10T22:19:57.482Z,7.93
2023-05-10T22:22:42.871Z,8.73
2023-05-10T22:25:28.487Z,8.13
2023-05-10T22:28:13.834Z,8.35
2023-05-10T22:30:59.442Z,9.00
2023-05-10T22:33:44.877Z,7.82
2023-05-10T22:36:30.741Z,8.63
2023-05-10T22:39:16.755Z,8.70
2023-05-10T22:42:02.165Z,10.48
2023-05-10T22:44:47.865Z,10.52
2023-05-10T22:47:33.579Z,10.30
2023-05-10T22:50:19.425Z,10.27
2023-05-10T22:53:04.912Z,9.35
2023-05-10T22:55:51.398Z,8.98
2023-05-10T22:58:36.642Z,10.60
2023-05-10T23:01:21.942Z,10.15
2023-05-10T23:04:07.448Z,10.50
2023-05-10T23:06:53.520Z,10.70
2023-05-10T23:09:39.081Z,11.32
2023-05-10T23:12:25.074Z,9.23
2023-05-10T23:15:10.984Z,11.80
2023-05-10T23:17:56.538Z,11.07
2023-05-10T23:20:42.735Z,12.05
2023-05-10T23:23:28.041Z,12.35
2023-05-10T23:26:13.503Z,12.85
2023-05-10T23:29:00.376Z,13.23
2023-05-10T23:31:49.023Z,12.80
2023-05-10T23:34:34.332Z,13.10
2023-05-10T23:37:19.386Z,15.25
2023-05-10T23:40:05.227Z,15.05
2023-05-10T23:42:50.491Z,12.85
2023-05-10T23:45:35.993Z,12.60
2023-05-10T23:48:21.748Z,11.95
2023-05-10T23:51:07.285Z,11.82
2023-05-10T23:53:52.277Z,10.93
2023-05-10T23:56:37.693Z,10.05
2023-05-10T23:59:23.050Z,11.60
